createdAt,value
2022-08-16T00:00:48.379Z,98720.81
2022-08-16T00:03:41.525Z,98729.72
2022-08-16T00:06:30.238Z,98730.84
2022-08-16T00:09:18.235Z,98731.47
2022-08-16T00:12:07.292Z,98723.34
2022-08-16T00:14:56.487Z,98721.03
2022-08-16T00:17:56.484Z,98732.25
2022-08-16T00:20:49.182Z,98739.75
2022-08-16T00:23:40.340Z,98738.84
2022-08-16T00:26:37.410Z,98738.69
2022-08-16T00:29:33.283Z,98736.66
2022-08-16T00:32:22.759Z,98741.53
2022-08-16T00:35:16.045Z,98744.16
2022-08-16T00:38:41.431Z,98738.88
2022-08-16T00:41:17.194Z,98736.06
2022-08-16T00:44:11.158Z,98745.13
2022-08-16T00:47:06.727Z,98744.31
2022-08-16T00:49:57.142Z,98743.88
2022-08-16T00:52:50.666Z,98741.38
2022-08-16T00:55:47.124Z,98753.41
2022-08-16T00:58:40.531Z,98747.00
2022-08-16T01:01:32.785Z,98744.34
2022-08-16T01:04:30.215Z,98742.03
2022-08-16T01:07:19.034Z,98732.38
2022-08-16T01:10:16.190Z,98733.34
2022-08-16T01:13:12.489Z,98731.16
2022-08-16T01:16:10.115Z,98735.06
2022-08-16T01:19:03.202Z,98741.34
2022-08-16T01:21:58.230Z,98742.41
2022-08-16T01:25:11.556Z,98743.19
2022-08-16T01:28:02.885Z,98745.97
2022-08-16T01:30:55.826Z,98745.97
2022-08-16T01:33:44.853Z,98746.31
2022-08-16T01:36:38.909Z,98755.50
2022-08-16T01:39:27.071Z,98751.75
2022-08-16T01:42:17.893Z,98749.09
2022-08-16T01:45:09.631Z,98745.53
2022-08-16T01:47:57.643Z,98742.59
2022-08-16T01:51:09.450Z,98745.38
2022-08-16T01:53:56.722Z,98750.97
2022-08-16T01:56:48.186Z,98744.75
2022-08-16T01:59:41.333Z,98742.44
2022-08-16T02:02:33.970Z,98744.63
2022-08-16T02:05:31.021Z,98746.66
2022-08-16T02:08:33.835Z,98750.06
2022-08-16T02:11:23.773Z,98748.03
2022-08-16T02:14:18.535Z,98745.88
2022-08-16T02:17:13.487Z,98744.78
2022-08-16T02:20:11.567Z,98734.03
2022-08-16T02:23:05.779Z,98735.59
2022-08-16T02:25:54.785Z,98737.13
2022-08-16T02:28:45.326Z,98742.13
2022-08-16T02:32:02.832Z,98736.06
2022-08-16T02:34:45.582Z,98737.00
2022-08-16T02:37:51.267Z,98731.22
2022-08-16T02:40:42.917Z,98732.78
2022-08-16T02:43:34.409Z,98740.72
2022-08-16T02:46:30.207Z,98743.31
2022-08-16T02:49:57.979Z,98740.22
2022-08-16T02:52:33.399Z,98743.81
2022-08-16T02:55:40.934Z,98745.22
2022-08-16T02:58:33.500Z,98738.34
2022-08-16T03:01:36.836Z,98735.25
2022-08-16T03:04:51.079Z,98740.34
2022-08-16T03:07:50.964Z,98729.03
2022-08-16T03:10:39.871Z,98735.88
2022-08-16T03:13:28.279Z,98739.28
2022-08-16T03:16:37.939Z,98741.75
2022-08-16T03:19:48.007Z,98742.53
2022-08-16T03:22:36.759Z,98736.63
2022-08-16T03:25:41.038Z,98745.00
2022-08-16T03:28:33.369Z,98722.94
2022-08-16T03:31:22.392Z,98731.16
2022-08-16T03:34:10.538Z,98730.22
2022-08-16T03:37:02.949Z,98742.34
2022-08-16T03:39:56.898Z,98736.13
2022-08-16T03:43:18.795Z,98727.25
2022-08-16T03:46:02.000Z,98732.06
2022-08-16T03:48:55.780Z,98736.91
2022-08-16T03:51:45.344Z,98728.97
2022-08-16T03:54:57.418Z,98723.19
2022-08-16T03:57:52.241Z,98732.22
2022-08-16T04:00:43.514Z,98730.34
2022-08-16T04:03:36.737Z,98727.38
2022-08-16T04:06:25.130Z,98735.81
2022-08-16T04:09:15.825Z,98736.75
2022-08-16T04:12:10.451Z,98729.13
2022-08-16T04:15:03.576Z,98727.88
2022-08-16T04:18:02.101Z,98732.56
2022-08-16T04:20:51.276Z,98738.44
2022-08-16T04:23:43.051Z,98734.56
2022-08-16T04:26:32.329Z,98732.69
2022-08-16T04:29:23.498Z,98733.28
2022-08-16T04:32:13.947Z,98735.47
2022-08-16T04:35:13.677Z,98739.53
2022-08-16T04:38:11.090Z,98742.94
2022-08-16T04:41:12.041Z,98758.47
2022-08-16T04:44:01.098Z,98744.66
2022-08-16T04:47:01.186Z,98749.16
2022-08-16T04:49:52.698Z,98755.69
2022-08-16T04:52:42.862Z,98757.84
2022-08-16T04:55:38.003Z,98762.94
2022-08-16T04:58:45.296Z,98762.75
2022-08-16T05:01:58.992Z,98764.91
2022-08-16T05:04:44.380Z,98768.66
2022-08-16T05:07:32.536Z,98775.50
2022-08-16T05:10:26.043Z,98770.66
2022-08-16T05:13:15.712Z,98777.94
2022-08-16T05:16:04.632Z,98771.09
2022-08-16T05:18:58.394Z,98773.75
2022-08-16T05:21:47.992Z,98774.34
2022-08-16T05:24:40.533Z,98778.53
2022-08-16T05:27:33.406Z,98778.53
2022-08-16T05:30:35.224Z,98787.56
2022-08-16T05:33:29.605Z,98788.63
2022-08-16T05:36:20.892Z,98785.38
2022-08-16T05:39:11.502Z,98790.38
2022-08-16T05:41:59.817Z,98796.91
2022-08-16T05:44:49.315Z,98793.19
2022-08-16T05:47:43.191Z,98796.78
2022-08-16T05:50:36.226Z,98796.16
2022-08-16T05:53:26.444Z,98798.81
2022-08-16T05:56:37.507Z,98798.50
2022-08-16T05:59:27.441Z,98808.78
2022-08-16T06:02:19.540Z,98807.38
2022-08-16T06:05:10.855Z,98800.69
2022-08-16T06:08:01.859Z,98799.34
2022-08-16T06:11:09.652Z,98809.28
2022-08-16T06:14:02.583Z,98807.94
2022-08-16T06:17:09.656Z,98809.47
2022-08-16T06:20:06.605Z,98809.63
2022-08-16T06:22:58.781Z,98804.53
2022-08-16T06:26:10.997Z,98802.38
2022-08-16T06:29:08.116Z,98806.72
2022-08-16T06:32:00.463Z,98815.63
2022-08-16T06:34:57.328Z,98811.28
2022-08-16T06:37:57.138Z,98807.72
2022-08-16T06:41:05.015Z,98809.25
2022-08-16T06:43:55.703Z,98819.69
2022-08-16T06:46:50.881Z,98811.91
2022-08-16T06:49:44.197Z,98804.63
2022-08-16T06:53:00.505Z,98810.84
2022-08-16T06:55:53.742Z,98810.41
2022-08-16T06:58:45.031Z,98808.38
2022-08-16T07:01:43.129Z,98815.59
2022-08-16T07:04:59.123Z,98810.59
2022-08-16T07:08:17.989Z,98814.50
2022-08-16T07:11:12.654Z,98812.66
2022-08-16T07:14:23.877Z,98819.50
2022-08-16T07:17:12.891Z,98822.63
2022-08-16T07:20:30.275Z,98815.47
2022-08-16T07:23:37.036Z,98821.09
2022-08-16T07:26:29.415Z,98811.41
2022-08-16T07:29:19.373Z,98812.50
2022-08-16T07:32:11.576Z,98810.16
2022-08-16T07:35:01.008Z,98812.50
2022-08-16T07:37:53.222Z,98826.50
2022-08-16T07:41:01.471Z,98830.38
2022-08-16T07:43:53.743Z,98821.50
2022-08-16T07:47:11.247Z,98827.41
2022-08-16T07:50:07.710Z,98833.50
2022-08-16T07:52:56.364Z,98824.91
2022-08-16T07:55:49.120Z,98831.13
2022-08-16T07:58:45.189Z,98828.66
2022-08-16T08:01:38.595Z,98828.94
2022-08-16T08:04:32.469Z,98830.19
2022-08-16T08:07:22.974Z,98824.53
2022-08-16T08:10:29.409Z,98830.41
2022-08-16T08:13:20.279Z,98833.63
2022-08-16T08:16:30.742Z,98829.97
2022-08-16T08:19:23.658Z,98835.84
2022-08-16T08:22:16.292Z,98837.50
2022-08-16T08:25:16.199Z,98835.25
2022-08-16T08:28:06.333Z,98840.50
2022-08-16T08:31:03.750Z,98847.63
2022-08-16T08:33:56.893Z,98847.72
2022-08-16T08:36:54.396Z,98847.94
2022-08-16T08:39:58.191Z,98852.75
2022-08-16T08:42:48.101Z,98853.94
2022-08-16T08:45:48.428Z,98850.63
2022-08-16T08:48:37.706Z,98854.81
2022-08-16T08:51:35.524Z,98858.59
2022-08-16T08:54:26.408Z,98863.91
2022-08-16T08:57:18.715Z,98851.69
2022-08-16T09:00:51.259Z,98854.00
2022-08-16T09:03:41.515Z,98859.13
2022-08-16T09:06:31.671Z,98862.28
2022-08-16T09:09:21.522Z,98859.66
2022-08-16T09:12:31.230Z,98857.16
2022-08-16T09:15:32.538Z,98856.84
2022-08-16T09:18:26.778Z,98863.72
2022-08-16T09:21:31.342Z,98864.84
2022-08-16T09:24:51.474Z,98862.97
2022-08-16T09:27:29.975Z,98879.81
2022-08-16T09:30:43.940Z,98868.06
2022-08-16T09:33:37.202Z,98861.50
2022-08-16T09:36:31.800Z,98859.59
2022-08-16T09:39:21.797Z,98857.13
2022-08-16T09:42:10.567Z,98857.81
2022-08-16T09:45:11.822Z,98859.88
2022-08-16T09:48:06.815Z,98862.28
2022-08-16T09:50:56.116Z,98858.72
2022-08-16T09:53:44.035Z,98859.25
2022-08-16T09:56:52.273Z,98853.44
2022-08-16T09:59:42.093Z,98844.50
2022-08-16T10:02:32.137Z,98849.31
2022-08-16T10:05:21.439Z,98847.06
2022-08-16T10:08:26.399Z,98850.59
2022-08-16T10:11:32.372Z,98849.03
2022-08-16T10:14:37.981Z,98844.56
2022-08-16T10:17:26.452Z,98843.22
2022-08-16T10:20:18.726Z,98839.84
2022-08-16T10:23:09.825Z,98840.66
2022-08-16T10:27:00.650Z,98842.94
2022-08-16T10:29:13.254Z,98835.66
2022-08-16T10:32:08.598Z,98844.06
2022-08-16T10:34:56.693Z,98838.50
2022-08-16T10:37:46.412Z,98837.38
2022-08-16T10:40:34.487Z,98839.25
2022-08-16T10:43:23.627Z,98841.22
2022-08-16T10:46:39.783Z,98844.00
2022-08-16T10:49:22.077Z,98842.63
2022-08-16T10:52:18.951Z,98843.91
2022-08-16T10:58:20.760Z,98844.22
2022-08-16T11:01:43.829Z,98835.94
2022-08-16T11:07:43.789Z,98840.41
2022-08-16T11:14:10.943Z,98844.22
2022-08-16T11:17:10.798Z,98848.00
2022-08-16T11:20:01.158Z,98853.00
2022-08-16T11:23:07.455Z,98854.09
2022-08-16T11:26:16.235Z,98839.22
2022-08-16T11:29:15.257Z,98853.34
2022-08-16T11:32:05.480Z,98845.34
2022-08-16T11:35:11.222Z,98836.53
2022-08-16T11:38:46.725Z,98836.38
2022-08-16T11:41:15.742Z,98846.38
2022-08-16T11:44:03.778Z,98839.31
2022-08-16T11:46:51.684Z,98843.69
2022-08-16T11:49:41.445Z,98843.84
2022-08-16T11:52:28.901Z,98838.66
2022-08-16T11:55:17.881Z,98841.09
2022-08-16T11:58:10.882Z,98848.16
2022-08-16T12:00:59.559Z,98847.88
2022-08-16T12:03:47.498Z,98846.06
2022-08-16T12:06:34.782Z,98833.13
2022-08-16T12:09:24.764Z,98832.34
2022-08-16T12:12:12.376Z,98838.47
2022-08-16T12:15:01.131Z,98832.44
2022-08-16T12:17:49.706Z,98830.94
2022-08-16T12:20:42.086Z,98832.56
2022-08-16T12:23:33.300Z,98836.09
2022-08-16T12:26:23.448Z,98831.19
2022-08-16T12:29:12.381Z,98824.38
2022-08-16T12:32:27.015Z,98814.38
2022-08-16T12:35:14.717Z,98824.50
2022-08-16T12:38:38.063Z,98824.41
2022-08-16T12:41:13.592Z,98822.44
2022-08-16T12:44:11.802Z,98817.44
2022-08-16T12:47:26.635Z,98822.03
2022-08-16T12:50:15.721Z,98806.69
2022-08-16T12:53:03.817Z,98808.66
2022-08-16T12:55:52.920Z,98807.94
2022-08-16T12:58:48.661Z,98814.91
2022-08-16T13:01:41.743Z,98813.88
2022-08-16T13:04:34.047Z,98810.94
2022-08-16T13:07:27.190Z,98807.53
2022-08-16T13:10:21.538Z,98812.19
2022-08-16T13:13:27.323Z,98806.09
2022-08-16T13:16:20.702Z,98803.41
2022-08-16T13:19:12.274Z,98803.75
2022-08-16T13:22:01.024Z,98793.47
2022-08-16T13:24:51.278Z,98801.22
2022-08-16T13:28:02.019Z,98797.84
2022-08-16T13:30:51.647Z,98787.16
2022-08-16T13:33:39.055Z,98791.81
2022-08-16T13:36:47.847Z,98786.47
2022-08-16T13:39:36.691Z,98794.91
2022-08-16T13:42:27.982Z,98792.66
2022-08-16T13:45:17.342Z,98792.66
2022-08-16T13:48:07.048Z,98794.97
2022-08-16T13:50:57.442Z,98789.63
2022-08-16T13:53:59.757Z,98784.63
2022-08-16T13:56:52.152Z,98784.19
2022-08-16T13:59:43.493Z,98785.69
2022-08-16T14:02:33.083Z,98788.72
2022-08-16T14:05:22.051Z,98781.81
2022-08-16T14:08:09.931Z,98775.69
2022-08-16T14:10:57.448Z,98777.22
2022-08-16T14:13:47.669Z,98772.66
2022-08-16T14:16:35.608Z,98761.97
2022-08-16T14:19:23.354Z,98760.09
2022-08-16T14:22:30.753Z,98756.28
2022-08-16T14:25:22.805Z,98765.50
2022-08-16T14:28:10.449Z,98756.31
2022-08-16T14:31:01.750Z,98758.31
2022-08-16T14:33:51.101Z,98760.97
2022-08-16T14:36:40.874Z,98758.31
2022-08-16T14:39:30.019Z,98755.22
2022-08-16T14:42:21.441Z,98755.22
2022-08-16T14:45:11.637Z,98746.44
2022-08-16T14:48:02.859Z,98742.25
2022-08-16T14:50:52.033Z,98738.50
2022-08-16T14:53:45.136Z,98740.72
2022-08-16T14:56:42.599Z,98745.28
2022-08-16T14:59:30.799Z,98742.97
2022-08-16T15:02:34.366Z,98739.94
2022-08-16T15:05:27.256Z,98741.19
2022-08-16T15:08:17.790Z,98740.06
2022-08-16T15:11:08.088Z,98746.94
2022-08-16T15:13:55.813Z,98743.13
2022-08-16T15:16:43.401Z,98741.66
2022-08-16T15:19:33.904Z,98752.41
2022-08-16T15:22:30.347Z,98733.69
2022-08-16T15:25:21.825Z,98747.06
2022-08-16T15:28:31.279Z,98742.06
2022-08-16T15:31:20.039Z,98746.66
2022-08-16T15:34:07.643Z,98752.41
2022-08-16T15:37:00.658Z,98749.75
2022-08-16T15:39:55.966Z,98750.09
2022-08-16T15:42:54.108Z,98760.03
2022-08-16T15:45:59.169Z,98755.38
2022-08-16T15:48:46.373Z,98755.38
2022-08-16T15:51:33.848Z,98752.38
2022-08-16T15:54:31.083Z,98752.72
2022-08-16T15:57:22.801Z,98754.19
2022-08-16T16:00:14.584Z,98759.16
2022-08-16T16:03:08.593Z,98762.28
2022-08-16T16:06:00.863Z,98762.28
2022-08-16T16:08:49.090Z,98753.81
2022-08-16T16:11:39.029Z,98748.47
2022-08-16T16:14:30.032Z,98751.53
2022-08-16T16:17:18.791Z,98742.72
2022-08-16T16:20:08.161Z,98738.50
2022-08-16T16:23:11.105Z,98746.94
2022-08-16T16:26:00.348Z,98741.59
2022-08-16T16:29:07.489Z,98749.22
2022-08-16T16:32:05.790Z,98744.53
2022-08-16T16:34:53.616Z,98740.28
2022-08-16T16:37:43.828Z,98740.66
2022-08-16T16:40:33.386Z,98727.66
2022-08-16T16:43:25.917Z,98733.72
2022-08-16T16:46:42.250Z,98731.38
2022-08-16T16:49:33.893Z,98735.13
2022-08-16T16:52:43.570Z,98734.31
2022-08-16T16:55:29.694Z,98731.59
2022-08-16T16:58:36.728Z,98726.97
2022-08-16T17:01:56.633Z,98729.97
2022-08-16T17:04:35.562Z,98723.44
2022-08-16T17:07:24.363Z,98732.56
2022-08-16T17:10:13.259Z,98728.72
2022-08-16T17:13:23.000Z,98739.00
2022-08-16T17:16:18.389Z,98734.75
2022-08-16T17:19:16.878Z,98729.34
2022-08-16T17:22:14.329Z,98735.03
2022-08-16T17:25:03.202Z,98745.31
2022-08-16T17:27:55.786Z,98741.44
2022-08-16T17:30:46.137Z,98735.66
2022-08-16T17:33:36.866Z,98728.78
2022-08-16T17:36:36.658Z,98744.38
2022-08-16T17:39:29.156Z,98737.09
2022-08-16T17:42:18.047Z,98740.41
2022-08-16T17:45:06.277Z,98745.31
2022-08-16T17:47:54.590Z,98741.47
2022-08-16T17:50:43.404Z,98739.50
2022-08-16T17:53:31.838Z,98743.66
2022-08-16T17:56:21.231Z,98741.66
2022-08-16T17:59:08.848Z,98742.72
2022-08-16T18:01:56.322Z,98743.06
2022-08-16T18:04:48.469Z,98740.31
2022-08-16T18:07:37.432Z,98745.13
2022-08-16T18:10:32.778Z,98746.19
2022-08-16T18:13:25.044Z,98752.94
2022-08-16T18:16:15.906Z,98753.97
2022-08-16T18:19:03.225Z,98754.25
2022-08-16T18:22:08.104Z,98749.13
2022-08-16T18:24:55.941Z,98748.63
2022-08-16T18:27:43.348Z,98746.63
2022-08-16T18:30:32.099Z,98743.91
2022-08-16T18:33:21.100Z,98745.69
2022-08-16T18:36:20.700Z,98751.72
2022-08-16T18:39:10.359Z,98750.09
2022-08-16T18:41:57.600Z,98752.66
2022-08-16T18:44:45.987Z,98749.16
2022-08-16T18:47:35.051Z,98757.84
2022-08-16T18:50:24.025Z,98757.31
2022-08-16T18:53:15.809Z,98760.22
2022-08-16T18:56:04.565Z,98763.97
2022-08-16T18:58:52.129Z,98762.28
2022-08-16T19:01:39.825Z,98765.63
2022-08-16T19:04:55.098Z,98765.88
2022-08-16T19:07:36.441Z,98775.25
2022-08-16T19:10:24.380Z,98771.34
2022-08-16T19:13:16.257Z,98772.81
2022-08-16T19:16:05.838Z,98774.63
2022-08-16T19:18:53.406Z,98782.50
2022-08-16T19:21:42.277Z,98794.97
2022-08-16T19:24:29.994Z,98790.31
2022-08-16T19:27:17.294Z,98791.72
2022-08-16T19:30:08.990Z,98786.28
2022-08-16T19:32:56.821Z,98796.41
2022-08-16T19:35:44.458Z,98787.50
2022-08-16T19:38:33.824Z,98797.31
2022-08-16T19:41:21.489Z,98793.31
2022-08-16T19:44:10.001Z,98796.66
2022-08-16T19:46:58.014Z,98806.09
2022-08-16T19:49:45.982Z,98801.78
2022-08-16T19:52:34.128Z,98823.31
2022-08-16T19:55:22.861Z,98812.91
2022-08-16T19:58:13.990Z,98823.34
2022-08-16T20:01:01.792Z,98812.50
2022-08-16T20:03:49.202Z,98818.50
2022-08-16T20:06:38.391Z,98823.28
2022-08-16T20:09:26.583Z,98825.03
2022-08-16T20:12:18.419Z,98828.34
2022-08-16T20:15:09.354Z,98832.00
2022-08-16T20:17:58.290Z,98833.78
2022-08-16T20:20:47.921Z,98840.91
2022-08-16T20:23:35.587Z,98839.56
2022-08-16T20:26:28.599Z,98836.34
2022-08-16T20:29:17.896Z,98837.34
2022-08-16T20:32:09.255Z,98839.88
2022-08-16T20:34:58.055Z,98837.78
2022-08-16T20:37:47.725Z,98837.66
2022-08-16T20:40:36.168Z,98836.78
2022-08-16T20:43:24.358Z,98837.31
2022-08-16T20:46:13.699Z,98850.13
2022-08-16T20:49:02.250Z,98842.06
2022-08-16T20:51:55.817Z,98850.38
2022-08-16T20:54:44.232Z,98851.44
2022-08-16T20:57:32.434Z,98848.38
2022-08-16T21:00:21.773Z,98845.16
2022-08-16T21:03:13.966Z,98851.78
2022-08-16T21:06:03.308Z,98853.88
2022-08-16T21:08:54.146Z,98858.94
2022-08-16T21:11:42.238Z,98851.50
2022-08-16T21:14:34.144Z,98855.47
2022-08-16T21:17:22.162Z,98848.03
2022-08-16T21:20:12.687Z,98856.66
2022-08-16T21:23:05.377Z,98858.72
2022-08-16T21:25:58.881Z,98866.09
2022-08-16T21:28:47.535Z,98868.28
2022-08-16T21:31:35.737Z,98865.97
2022-08-16T21:34:23.629Z,98874.28
2022-08-16T21:37:15.707Z,98868.03
2022-08-16T21:40:04.304Z,98861.72
2022-08-16T21:42:52.329Z,98870.19
2022-08-16T21:45:41.278Z,98864.63
2022-08-16T21:48:34.464Z,98865.75
2022-08-16T21:51:23.510Z,98863.41
2022-08-16T21:54:13.088Z,98874.34
2022-08-16T21:57:01.126Z,98872.34
2022-08-16T21:59:51.246Z,98872.22
2022-08-16T22:02:39.167Z,98868.81
2022-08-16T22:05:27.656Z,98867.75
2022-08-16T22:08:16.901Z,98873.72
2022-08-16T22:11:09.239Z,98872.16
2022-08-16T22:13:59.427Z,98866.72
2022-08-16T22:16:47.390Z,98867.22
2022-08-16T22:19:35.534Z,98873.06
2022-08-16T22:22:23.553Z,98869.03
2022-08-16T22:25:23.125Z,98863.88
2022-08-16T22:28:13.625Z,98865.63
2022-08-16T22:31:02.360Z,98868.16
2022-08-16T22:33:50.184Z,98868.00
2022-08-16T22:36:39.004Z,98866.78
2022-08-16T22:39:26.885Z,98868.97
2022-08-16T22:42:14.669Z,98875.84
2022-08-16T22:45:08.587Z,98874.75
2022-08-16T22:47:56.975Z,98874.28
2022-08-16T22:50:45.721Z,98872.53
2022-08-16T22:53:33.952Z,98868.53
2022-08-16T22:56:26.462Z,98875.09
2022-08-16T22:59:14.875Z,98884.00
2022-08-16T23:02:06.747Z,98876.69
2022-08-16T23:04:55.116Z,98885.28
2022-08-16T23:07:43.093Z,98879.06
2022-08-16T23:10:31.300Z,98872.81
2022-08-16T23:13:20.792Z,98880.97
2022-08-16T23:16:11.261Z,98887.34
2022-08-16T23:19:00.752Z,98880.34
2022-08-16T23:21:49.522Z,98880.34
2022-08-16T23:24:56.130Z,98877.38
2022-08-16T23:27:44.944Z,98876.94
2022-08-16T23:30:36.786Z,98879.88
2022-08-16T23:33:30.127Z,98876.31
2022-08-16T23:36:19.122Z,98863.53
2022-08-16T23:39:07.317Z,98868.50
2022-08-16T23:41:55.688Z,98860.75
2022-08-16T23:44:58.991Z,98856.81
2022-08-16T23:47:47.449Z,98850.59
2022-08-16T23:50:38.755Z,98848.75
2022-08-16T23:53:30.228Z,98842.66
2022-08-16T23:56:21.498Z,98839.88
2022-08-16T23:59:09.567Z,98847.34
